sensor_id;sensor_type;location;lat;lon;timestamp;temperature;humidity
5286;DHT22;2665;53.112;7.358;2022-10-26T00:00:27;11.20;99.90
5286;DHT22;2665;53.112;7.358;2022-10-26T00:02:54;11.20;99.90
5286;DHT22;2665;53.112;7.358;2022-10-26T00:05:20;11.20;99.90
5286;DHT22;2665;53.112;7.358;2022-10-26T00:07:46;11.20;99.90
5286;DHT22;2665;53.112;7.358;2022-10-26T00:10:12;11.30;99.90
5286;DHT22;2665;53.112;7.358;2022-10-26T00:12:38;11.30;39.00
5286;DHT22;2665;53.112;7.358;2022-10-26T00:15:04;11.30;1.00
5286;DHT22;2665;53.112;7.358;2022-10-26T00:17:30;11.30;1.00
5286;DHT22;2665;53.112;7.358;2022-10-26T00:19:55;11.30;1.00
5286;DHT22;2665;53.112;7.358;2022-10-26T00:22:22;11.30;1.00
5286;DHT22;2665;53.112;7.358;2022-10-26T00:24:47;11.30;99.90
5286;DHT22;2665;53.112;7.358;2022-10-26T00:27:13;11.30;99.90
5286;DHT22;2665;53.112;7.358;2022-10-26T00:29:39;11.30;1.00
5286;DHT22;2665;53.112;7.358;2022-10-26T00:32:05;11.30;1.00
5286;DHT22;2665;53.112;7.358;2022-10-26T00:34:31;11.20;12.90
5286;DHT22;2665;53.112;7.358;2022-10-26T00:36:57;11.20;1.00
5286;DHT22;2665;53.112;7.358;2022-10-26T00:39:22;11.10;1.00
5286;DHT22;2665;53.112;7.358;2022-10-26T00:41:48;11.00;99.90
5286;DHT22;2665;53.112;7.358;2022-10-26T00:47:14;10.90;1.00
5286;DHT22;2665;53.112;7.358;2022-10-26T00:49:41;10.90;99.90
5286;DHT22;2665;53.112;7.358;2022-10-26T00:52:07;11.00;99.90
5286;DHT22;2665;53.112;7.358;2022-10-26T00:54:33;11.00;99.90
5286;DHT22;2665;53.112;7.358;2022-10-26T00:56:59;11.10;99.90
5286;DHT22;2665;53.112;7.358;2022-10-26T00:59:25;11.10;1.00
5286;DHT22;2665;53.112;7.358;2022-10-26T01:01:51;11.10;1.00
5286;DHT22;2665;53.112;7.358;2022-10-26T01:04:17;11.00;99.90
5286;DHT22;2665;53.112;7.358;2022-10-26T01:06:44;10.90;99.90
5286;DHT22;2665;53.112;7.358;2022-10-26T01:09:11;10.80;1.00
5286;DHT22;2665;53.112;7.358;2022-10-26T01:11:37;10.70;1.00
5286;DHT22;2665;53.112;7.358;2022-10-26T01:14:06;10.60;99.90
5286;DHT22;2665;53.112;7.358;2022-10-26T01:19:59;10.50;1.00
5286;DHT22;2665;53.112;7.358;2022-10-26T01:22:49;10.50;1.00
5286;DHT22;2665;53.112;7.358;2022-10-26T01:28:01;10.40;1.00
5286;DHT22;2665;53.112;7.358;2022-10-26T01:30:38;10.40;1.00
5286;DHT22;2665;53.112;7.358;2022-10-26T01:43:42;10.30;3.30
5286;DHT22;2665;53.112;7.358;2022-10-26T01:46:09;10.20;1.00
5286;DHT22;2665;53.112;7.358;2022-10-26T01:48:36;10.10;99.90
5286;DHT22;2665;53.112;7.358;2022-10-26T01:51:03;10.10;99.90
5286;DHT22;2665;53.112;7.358;2022-10-26T01:53:30;10.00;99.90
5286;DHT22;2665;53.112;7.358;2022-10-26T01:55:56;9.90;12.50
5286;DHT22;2665;53.112;7.358;2022-10-26T01:58:45;9.90;99.90
5286;DHT22;2665;53.112;7.358;2022-10-26T02:04:08;9.80;99.90
5286;DHT22;2665;53.112;7.358;2022-10-26T02:19:19;9.50;1.00
5286;DHT22;2665;53.112;7.358;2022-10-26T02:21:40;9.50;1.00
5286;DHT22;2665;53.112;7.358;2022-10-26T02:24:09;9.50;1.00
5286;DHT22;2665;53.112;7.358;2022-10-26T02:26:36;9.40;64.50
5286;DHT22;2665;53.112;7.358;2022-10-26T02:29:06;9.40;1.00
5286;DHT22;2665;53.112;7.358;2022-10-26T02:31:34;9.30;1.00
5286;DHT22;2665;53.112;7.358;2022-10-26T02:34:03;9.30;81.30
5286;DHT22;2665;53.112;7.358;2022-10-26T02:36:34;9.20;99.90
5286;DHT22;2665;53.112;7.358;2022-10-26T02:39:02;9.10;99.90
5286;DHT22;2665;53.112;7.358;2022-10-26T02:41:29;9.10;99.90
5286;DHT22;2665;53.112;7.358;2022-10-26T02:46:42;9.00;1.00
5286;DHT22;2665;53.112;7.358;2022-10-26T02:49:08;9.00;1.00
5286;DHT22;2665;53.112;7.358;2022-10-26T02:57:28;9.00;99.90
5286;DHT22;2665;53.112;7.358;2022-10-26T02:59:54;8.90;1.00
5286;DHT22;2665;53.112;7.358;2022-10-26T03:02:21;9.00;1.00
5286;DHT22;2665;53.112;7.358;2022-10-26T03:04:49;9.00;1.00
5286;DHT22;2665;53.112;7.358;2022-10-26T03:07:22;9.00;1.00
5286;DHT22;2665;53.112;7.358;2022-10-26T03:09:48;9.00;1.00
5286;DHT22;2665;53.112;7.358;2022-10-26T03:12:14;9.10;25.60
5286;DHT22;2665;53.112;7.358;2022-10-26T03:14:39;9.10;99.20
5286;DHT22;2665;53.112;7.358;2022-10-26T03:17:06;9.20;99.90
5286;DHT22;2665;53.112;7.358;2022-10-26T03:19:31;9.20;99.90
5286;DHT22;2665;53.112;7.358;2022-10-26T03:21:57;9.20;99.90
5286;DHT22;2665;53.112;7.358;2022-10-26T03:24:23;9.20;99.90
5286;DHT22;2665;53.112;7.358;2022-10-26T03:26:48;9.20;74.60
5286;DHT22;2665;53.112;7.358;2022-10-26T03:29:14;9.20;1.00
5286;DHT22;2665;53.112;7.358;2022-10-26T03:31:39;9.20;1.00
5286;DHT22;2665;53.112;7.358;2022-10-26T03:34:05;9.20;1.00
5286;DHT22;2665;53.112;7.358;2022-10-26T03:36:30;9.10;1.00
5286;DHT22;2665;53.112;7.358;2022-10-26T03:38:57;9.10;1.00
5286;DHT22;2665;53.112;7.358;2022-10-26T03:41:23;9.10;1.00
5286;DHT22;2665;53.112;7.358;2022-10-26T03:43:48;9.00;1.00
5286;DHT22;2665;53.112;7.358;2022-10-26T03:46:14;9.00;1.00
5286;DHT22;2665;53.112;7.358;2022-10-26T03:48:40;9.00;25.50
5286;DHT22;2665;53.112;7.358;2022-10-26T03:51:05;9.00;1.00
5286;DHT22;2665;53.112;7.358;2022-10-26T03:53:31;9.00;1.00
5286;DHT22;2665;53.112;7.358;2022-10-26T03:55:56;9.00;1.00
5286;DHT22;2665;53.112;7.358;2022-10-26T03:58:22;8.90;1.00
5286;DHT22;2665;53.112;7.358;2022-10-26T04:00:48;8.90;1.00
5286;DHT22;2665;53.112;7.358;2022-10-26T04:03:13;8.90;1.00
5286;DHT22;2665;53.112;7.358;2022-10-26T04:05:39;8.90;1.00
5286;DHT22;2665;53.112;7.358;2022-10-26T04:08:04;8.90;1.00
5286;DHT22;2665;53.112;7.358;2022-10-26T04:10:30;8.90;73.80
5286;DHT22;2665;53.112;7.358;2022-10-26T04:12:57;8.80;72.80
5286;DHT22;2665;53.112;7.358;2022-10-26T04:15:26;8.80;36.70
5286;DHT22;2665;53.112;7.358;2022-10-26T04:17:59;8.80;73.90
5286;DHT22;2665;53.112;7.358;2022-10-26T04:20:27;8.80;83.60
5286;DHT22;2665;53.112;7.358;2022-10-26T04:22:57;8.70;74.10
5286;DHT22;2665;53.112;7.358;2022-10-26T04:25:22;8.80;73.40
5286;DHT22;2665;53.112;7.358;2022-10-26T04:27:48;8.70;86.10
5286;DHT22;2665;53.112;7.358;2022-10-26T04:30:14;8.70;99.90
5286;DHT22;2665;53.112;7.358;2022-10-26T04:32:39;8.60;99.90
5286;DHT22;2665;53.112;7.358;2022-10-26T04:35:05;8.60;99.90
5286;DHT22;2665;53.112;7.358;2022-10-26T04:37:30;8.60;99.90
5286;DHT22;2665;53.112;7.358;2022-10-26T04:39:57;8.60;99.90
5286;DHT22;2665;53.112;7.358;2022-10-26T04:42:22;8.60;99.90
5286;DHT22;2665;53.112;7.358;2022-10-26T04:44:48;8.60;99.90
5286;DHT22;2665;53.112;7.358;2022-10-26T04:47:14;8.60;99.90
5286;DHT22;2665;53.112;7.358;2022-10-26T04:49:39;8.60;99.90
5286;DHT22;2665;53.112;7.358;2022-10-26T04:52:05;8.60;99.90
5286;DHT22;2665;53.112;7.358;2022-10-26T04:54:31;8.60;99.90
5286;DHT22;2665;53.112;7.358;2022-10-26T04:56:56;8.60;99.90
5286;DHT22;2665;53.112;7.358;2022-10-26T04:59:22;8.60;99.90
5286;DHT22;2665;53.112;7.358;2022-10-26T05:01:47;8.70;99.90
5286;DHT22;2665;53.112;7.358;2022-10-26T05:04:13;8.70;99.90
5286;DHT22;2665;53.112;7.358;2022-10-26T05:06:38;8.80;1.00
5286;DHT22;2665;53.112;7.358;2022-10-26T05:09:04;8.80;1.00
5286;DHT22;2665;53.112;7.358;2022-10-26T05:11:30;8.90;1.00
5286;DHT22;2665;53.112;7.358;2022-10-26T05:13:55;8.90;1.00
5286;DHT22;2665;53.112;7.358;2022-10-26T05:16:21;9.00;1.00
5286;DHT22;2665;53.112;7.358;2022-10-26T05:18:47;9.00;1.00
5286;DHT22;2665;53.112;7.358;2022-10-26T05:21:14;9.00;1.00
5286;DHT22;2665;53.112;7.358;2022-10-26T05:23:53;9.10;1.00
5286;DHT22;2665;53.112;7.358;2022-10-26T05:26:21;9.10;1.00
5286;DHT22;2665;53.112;7.358;2022-10-26T05:28:47;9.20;1.00
5286;DHT22;2665;53.112;7.358;2022-10-26T05:31:12;9.20;1.00
5286;DHT22;2665;53.112;7.358;2022-10-26T05:33:38;9.30;1.00
5286;DHT22;2665;53.112;7.358;2022-10-26T05:36:04;9.30;1.00
5286;DHT22;2665;53.112;7.358;2022-10-26T05:38:30;9.40;1.00
5286;DHT22;2665;53.112;7.358;2022-10-26T05:40:56;9.40;1.00
5286;DHT22;2665;53.112;7.358;2022-10-26T05:43:22;9.40;1.00
5286;DHT22;2665;53.112;7.358;2022-10-26T05:45:49;9.40;1.00
5286;DHT22;2665;53.112;7.358;2022-10-26T05:48:15;9.50;1.00
5286;DHT22;2665;53.112;7.358;2022-10-26T05:50:41;9.50;1.00
5286;DHT22;2665;53.112;7.358;2022-10-26T05:53:06;9.50;1.00
5286;DHT22;2665;53.112;7.358;2022-10-26T05:55:32;9.60;1.00
5286;DHT22;2665;53.112;7.358;2022-10-26T05:57:58;9.60;1.00
5286;DHT22;2665;53.112;7.358;2022-10-26T06:00:26;9.60;1.00
5286;DHT22;2665;53.112;7.358;2022-10-26T06:03:10;9.60;1.00
5286;DHT22;2665;53.112;7.358;2022-10-26T06:05:52;9.60;1.00
5286;DHT22;2665;53.112;7.358;2022-10-26T06:08:18;9.70;1.00
5286;DHT22;2665;53.112;7.358;2022-10-26T06:10:46;9.70;1.00
5286;DHT22;2665;53.112;7.358;2022-10-26T06:13:11;9.70;1.00
5286;DHT22;2665;53.112;7.358;2022-10-26T06:16:10;9.70;1.00
5286;DHT22;2665;53.112;7.358;2022-10-26T06:21:19;9.70;1.00
5286;DHT22;2665;53.112;7.358;2022-10-26T06:24:02;9.70;1.00
5286;DHT22;2665;53.112;7.358;2022-10-26T06:32:03;9.70;1.00
5286;DHT22;2665;53.112;7.358;2022-10-26T06:34:33;9.70;1.00
5286;DHT22;2665;53.112;7.358;2022-10-26T06:37:00;9.80;1.00
5286;DHT22;2665;53.112;7.358;2022-10-26T06:39:34;9.70;1.00
5286;DHT22;2665;53.112;7.358;2022-10-26T06:42:01;9.80;1.00
5286;DHT22;2665;53.112;7.358;2022-10-26T06:44:27;9.80;1.00
5286;DHT22;2665;53.112;7.358;2022-10-26T06:52:17;9.80;1.00
5286;DHT22;2665;53.112;7.358;2022-10-26T06:54:54;9.80;1.00
5286;DHT22;2665;53.112;7.358;2022-10-26T06:57:25;9.80;1.00
5286;DHT22;2665;53.112;7.358;2022-10-26T06:59:56;9.80;1.00
5286;DHT22;2665;53.112;7.358;2022-10-26T07:02:22;9.90;1.00
5286;DHT22;2665;53.112;7.358;2022-10-26T07:04:48;9.90;1.00
5286;DHT22;2665;53.112;7.358;2022-10-26T07:07:17;9.90;1.00
5286;DHT22;2665;53.112;7.358;2022-10-26T07:09:44;9.90;1.00
5286;DHT22;2665;53.112;7.358;2022-10-26T07:12:09;9.80;1.00
5286;DHT22;2665;53.112;7.358;2022-10-26T07:14:35;9.90;1.00
5286;DHT22;2665;53.112;7.358;2022-10-26T07:17:01;9.80;1.00
5286;DHT22;2665;53.112;7.358;2022-10-26T07:19:26;9.80;1.00
5286;DHT22;2665;53.112;7.358;2022-10-26T07:21:56;9.80;1.00
5286;DHT22;2665;53.112;7.358;2022-10-26T07:24:23;9.90;1.00
5286;DHT22;2665;53.112;7.358;2022-10-26T07:26:49;9.90;1.00
5286;DHT22;2665;53.112;7.358;2022-10-26T07:29:14;9.80;1.00
5286;DHT22;2665;53.112;7.358;2022-10-26T07:31:43;10.00;1.00
5286;DHT22;2665;53.112;7.358;2022-10-26T07:34:08;10.00;1.00
5286;DHT22;2665;53.112;7.358;2022-10-26T07:36:34;10.10;1.00
5286;DHT22;2665;53.112;7.358;2022-10-26T07:39:02;10.20;1.00
5286;DHT22;2665;53.112;7.358;2022-10-26T07:41:27;10.20;1.00
5286;DHT22;2665;53.112;7.358;2022-10-26T07:43:53;10.20;1.00
5286;DHT22;2665;53.112;7.358;2022-10-26T07:46:18;10.30;1.00
5286;DHT22;2665;53.112;7.358;2022-10-26T07:48:44;10.30;1.00
5286;DHT22;2665;53.112;7.358;2022-10-26T07:51:10;10.40;1.00
5286;DHT22;2665;53.112;7.358;2022-10-26T07:53:35;10.40;1.00
5286;DHT22;2665;53.112;7.358;2022-10-26T07:56:01;10.40;1.00
5286;DHT22;2665;53.112;7.358;2022-10-26T07:58:26;10.50;1.00
5286;DHT22;2665;53.112;7.358;2022-10-26T08:00:53;10.50;1.00
5286;DHT22;2665;53.112;7.358;2022-10-26T08:03:18;10.50;1.00
5286;DHT22;2665;53.112;7.358;2022-10-26T08:05:48;10.60;1.00
5286;DHT22;2665;53.112;7.358;2022-10-26T08:08:18;10.70;1.00
5286;DHT22;2665;53.112;7.358;2022-10-26T08:10:45;10.70;1.00
5286;DHT22;2665;53.112;7.358;2022-10-26T08:13:11;10.80;1.00
5286;DHT22;2665;53.112;7.358;2022-10-26T08:15:38;10.90;1.00
5286;DHT22;2665;53.112;7.358;2022-10-26T08:18:04;10.90;1.00
5286;DHT22;2665;53.112;7.358;2022-10-26T08:20:30;11.00;1.00
5286;DHT22;2665;53.112;7.358;2022-10-26T08:22:56;11.10;1.00
5286;DHT22;2665;53.112;7.358;2022-10-26T08:25:22;11.20;1.00
5286;DHT22;2665;53.112;7.358;2022-10-26T08:27:47;11.30;1.00
5286;DHT22;2665;53.112;7.358;2022-10-26T08:30:13;11.40;1.00
5286;DHT22;2665;53.112;7.358;2022-10-26T08:32:39;11.50;1.00
5286;DHT22;2665;53.112;7.358;2022-10-26T08:35:07;11.60;1.00
5286;DHT22;2665;53.112;7.358;2022-10-26T08:37:33;11.80;1.00
5286;DHT22;2665;53.112;7.358;2022-10-26T08:39:58;12.40;1.00
5286;DHT22;2665;53.112;7.358;2022-10-26T08:42:31;13.40;1.00
5286;DHT22;2665;53.112;7.358;2022-10-26T08:47:46;15.90;1.00
5286;DHT22;2665;53.112;7.358;2022-10-26T08:50:36;16.80;1.00
5286;DHT22;2665;53.112;7.358;2022-10-26T08:53:36;17.50;1.00
5286;DHT22;2665;53.112;7.358;2022-10-26T08:56:28;18.00;1.00
5286;DHT22;2665;53.112;7.358;2022-10-26T09:01:53;18.70;99.90
5286;DHT22;2665;53.112;7.358;2022-10-26T09:04:26;19.10;99.90
5286;DHT22;2665;53.112;7.358;2022-10-26T09:10:17;19.60;99.90
5286;DHT22;2665;53.112;7.358;2022-10-26T09:13:21;19.50;1.00
5286;DHT22;2665;53.112;7.358;2022-10-26T09:15:59;18.60;99.90
5286;DHT22;2665;53.112;7.358;2022-10-26T09:21:55;16.60;99.90
5286;DHT22;2665;53.112;7.358;2022-10-26T09:24:35;15.90;1.00
5286;DHT22;2665;53.112;7.358;2022-10-26T09:29:46;15.40;97.80
5286;DHT22;2665;53.112;7.358;2022-10-26T09:32:24;15.50;99.90
5286;DHT22;2665;53.112;7.358;2022-10-26T09:37:41;15.60;99.90
5286;DHT22;2665;53.112;7.358;2022-10-26T09:43:01;15.70;99.90
5286;DHT22;2665;53.112;7.358;2022-10-26T09:45:36;15.70;99.90
5286;DHT22;2665;53.112;7.358;2022-10-26T09:48:17;15.70;99.90
5286;DHT22;2665;53.112;7.358;2022-10-26T09:50:47;15.60;99.90
5286;DHT22;2665;53.112;7.358;2022-10-26T09:53:14;15.50;99.90
5286;DHT22;2665;53.112;7.358;2022-10-26T09:55:42;15.50;99.90
5286;DHT22;2665;53.112;7.358;2022-10-26T09:58:19;15.70;1.00
5286;DHT22;2665;53.112;7.358;2022-10-26T10:00:45;15.70;99.90
5286;DHT22;2665;53.112;7.358;2022-10-26T10:03:20;15.80;99.90
5286;DHT22;2665;53.112;7.358;2022-10-26T10:05:48;15.90;99.90
5286;DHT22;2665;53.112;7.358;2022-10-26T10:08:25;16.00;99.90
5286;DHT22;2665;53.112;7.358;2022-10-26T10:11:06;16.10;99.90
5286;DHT22;2665;53.112;7.358;2022-10-26T10:13:44;16.30;99.90
5286;DHT22;2665;53.112;7.358;2022-10-26T10:16:23;16.50;99.90
5286;DHT22;2665;53.112;7.358;2022-10-26T10:18:55;16.70;1.00
5286;DHT22;2665;53.112;7.358;2022-10-26T10:21:39;16.80;57.70
5286;DHT22;2665;53.112;7.358;2022-10-26T10:24:27;16.90;31.80
5286;DHT22;2665;53.112;7.358;2022-10-26T10:27:02;17.00;1.00
5286;DHT22;2665;53.112;7.358;2022-10-26T10:29:38;17.10;1.00
5286;DHT22;2665;53.112;7.358;2022-10-26T10:32:04;17.20;1.00
5286;DHT22;2665;53.112;7.358;2022-10-26T10:34:32;17.30;1.00
5286;DHT22;2665;53.112;7.358;2022-10-26T10:36:59;17.50;1.00
5286;DHT22;2665;53.112;7.358;2022-10-26T10:39:39;17.60;99.90
5286;DHT22;2665;53.112;7.358;2022-10-26T10:42:15;17.70;99.90
5286;DHT22;2665;53.112;7.358;2022-10-26T10:44:42;17.80;99.90
5286;DHT22;2665;53.112;7.358;2022-10-26T10:47:22;17.80;99.90
5286;DHT22;2665;53.112;7.358;2022-10-26T10:50:00;17.80;99.90
5286;DHT22;2665;53.112;7.358;2022-10-26T10:52:31;17.80;99.90
5286;DHT22;2665;53.112;7.358;2022-10-26T11:00:12;17.80;1.00
5286;DHT22;2665;53.112;7.358;2022-10-26T11:08:38;17.90;99.90
5286;DHT22;2665;53.112;7.358;2022-10-26T11:11:19;18.20;99.90
5286;DHT22;2665;53.112;7.358;2022-10-26T11:13:56;18.30;99.90
5286;DHT22;2665;53.112;7.358;2022-10-26T11:16:27;18.30;99.90
5286;DHT22;2665;53.112;7.358;2022-10-26T11:19:27;18.30;99.90
5286;DHT22;2665;53.112;7.358;2022-10-26T11:21:54;18.20;99.90
5286;DHT22;2665;53.112;7.358;2022-10-26T11:24:38;18.20;99.90
5286;DHT22;2665;53.112;7.358;2022-10-26T11:27:49;18.20;99.90
5286;DHT22;2665;53.112;7.358;2022-10-26T11:30:21;18.20;99.90
5286;DHT22;2665;53.112;7.358;2022-10-26T11:33:02;18.10;99.90
5286;DHT22;2665;53.112;7.358;2022-10-26T11:35:40;18.10;99.90
5286;DHT22;2665;53.112;7.358;2022-10-26T11:38:29;18.10;99.90
5286;DHT22;2665;53.112;7.358;2022-10-26T11:41:09;18.10;99.90
5286;DHT22;2665;53.112;7.358;2022-10-26T11:48:58;18.40;99.90
5286;DHT22;2665;53.112;7.358;2022-10-26T11:54:14;18.70;99.90
5286;DHT22;2665;53.112;7.358;2022-10-26T11:56:46;18.90;99.90
5286;DHT22;2665;53.112;7.358;2022-10-26T11:59:17;19.00;99.90
5286;DHT22;2665;53.112;7.358;2022-10-26T12:01:44;19.10;99.90
5286;DHT22;2665;53.112;7.358;2022-10-26T12:04:10;19.20;99.90
5286;DHT22;2665;53.112;7.358;2022-10-26T12:06:37;19.20;51.80
5286;DHT22;2665;53.112;7.358;2022-10-26T12:09:07;19.20;49.60
5286;DHT22;2665;53.112;7.358;2022-10-26T12:11:47;19.20;32.10
5286;DHT22;2665;53.112;7.358;2022-10-26T12:17:02;19.30;31.50
5286;DHT22;2665;53.112;7.358;2022-10-26T12:22:10;19.40;51.10
5286;DHT22;2665;53.112;7.358;2022-10-26T12:24:45;19.50;49.60
5286;DHT22;2665;53.112;7.358;2022-10-26T12:27:31;19.40;55.10
5286;DHT22;2665;53.112;7.358;2022-10-26T12:32:48;19.30;34.40
5286;DHT22;2665;53.112;7.358;2022-10-26T12:35:30;19.30;39.80
5286;DHT22;2665;53.112;7.358;2022-10-26T12:37:58;19.40;67.60
5286;DHT22;2665;53.112;7.358;2022-10-26T12:42:55;19.50;89.80
5286;DHT22;2665;53.112;7.358;2022-10-26T12:45:22;19.50;96.60
5286;DHT22;2665;53.112;7.358;2022-10-26T13:08:57;19.40;90.80
5286;DHT22;2665;53.112;7.358;2022-10-26T13:11:30;19.50;99.90
5286;DHT22;2665;53.112;7.358;2022-10-26T13:13:59;19.50;99.90
5286;DHT22;2665;53.112;7.358;2022-10-26T13:49:00;20.00;99.90
5286;DHT22;2665;53.112;7.358;2022-10-26T13:51:42;20.00;99.90
5286;DHT22;2665;53.112;7.358;2022-10-26T13:54:27;20.10;99.90
5286;DHT22;2665;53.112;7.358;2022-10-26T13:59:33;20.60;99.90
5286;DHT22;2665;53.112;7.358;2022-10-26T14:04:32;21.00;99.90
5286;DHT22;2665;53.112;7.358;2022-10-26T14:06:58;21.00;99.90
5286;DHT22;2665;53.112;7.358;2022-10-26T14:09:23;21.10;99.90
5286;DHT22;2665;53.112;7.358;2022-10-26T14:11:53;21.10;98.90
5286;DHT22;2665;53.112;7.358;2022-10-26T14:14:22;20.80;75.20
5286;DHT22;2665;53.112;7.358;2022-10-26T14:16:49;20.60;35.60
5286;DHT22;2665;53.112;7.358;2022-10-26T14:19:21;20.50;91.10
5286;DHT22;2665;53.112;7.358;2022-10-26T14:21:48;20.60;73.00
5286;DHT22;2665;53.112;7.358;2022-10-26T14:24:29;20.40;90.40
5286;DHT22;2665;53.112;7.358;2022-10-26T14:26:55;20.20;95.30
5286;DHT22;2665;53.112;7.358;2022-10-26T14:29:23;20.20;99.90
5286;DHT22;2665;53.112;7.358;2022-10-26T14:31:49;20.00;92.10
5286;DHT22;2665;53.112;7.358;2022-10-26T14:34:16;19.70;99.90
5286;DHT22;2665;53.112;7.358;2022-10-26T14:36:46;19.60;99.90
5286;DHT22;2665;53.112;7.358;2022-10-26T14:41:58;19.40;99.90
5286;DHT22;2665;53.112;7.358;2022-10-26T14:44:25;19.50;99.90
5286;DHT22;2665;53.112;7.358;2022-10-26T14:46:51;19.90;99.90
5286;DHT22;2665;53.112;7.358;2022-10-26T14:49:23;20.30;99.90
5286;DHT22;2665;53.112;7.358;2022-10-26T14:51:57;20.70;99.90
5286;DHT22;2665;53.112;7.358;2022-10-26T14:54:27;21.10;99.90
5286;DHT22;2665;53.112;7.358;2022-10-26T14:56:53;21.40;99.90
5286;DHT22;2665;53.112;7.358;2022-10-26T15:04:38;20.90;92.20
5286;DHT22;2665;53.112;7.358;2022-10-26T15:09:46;20.20;97.20
5286;DHT22;2665;53.112;7.358;2022-10-26T15:12:35;19.70;99.90
5286;DHT22;2665;53.112;7.358;2022-10-26T15:15:20;19.30;99.90
5286;DHT22;2665;53.112;7.358;2022-10-26T15:17:54;19.00;99.90
5286;DHT22;2665;53.112;7.358;2022-10-26T15:20:22;18.80;99.90
5286;DHT22;2665;53.112;7.358;2022-10-26T15:22:53;18.60;99.90
5286;DHT22;2665;53.112;7.358;2022-10-26T15:25:26;18.50;99.90
5286;DHT22;2665;53.112;7.358;2022-10-26T15:27:52;18.40;99.90
5286;DHT22;2665;53.112;7.358;2022-10-26T15:30:22;18.20;99.90
5286;DHT22;2665;53.112;7.358;2022-10-26T15:32:51;18.10;99.90
5286;DHT22;2665;53.112;7.358;2022-10-26T15:35:21;18.00;99.90
5286;DHT22;2665;53.112;7.358;2022-10-26T15:37:49;17.90;99.90
5286;DHT22;2665;53.112;7.358;2022-10-26T15:40:16;17.90;99.90
5286;DHT22;2665;53.112;7.358;2022-10-26T15:42:42;17.80;99.90
5286;DHT22;2665;53.112;7.358;2022-10-26T15:45:23;17.70;99.90
5286;DHT22;2665;53.112;7.358;2022-10-26T15:47:50;17.70;1.00
5286;DHT22;2665;53.112;7.358;2022-10-26T15:50:19;17.60;1.00
5286;DHT22;2665;53.112;7.358;2022-10-26T15:52:45;17.60;1.00
5286;DHT22;2665;53.112;7.358;2022-10-26T15:55:11;17.50;1.00
5286;DHT22;2665;53.112;7.358;2022-10-26T15:57:37;17.40;1.00
5286;DHT22;2665;53.112;7.358;2022-10-26T16:00:05;17.40;1.00
5286;DHT22;2665;53.112;7.358;2022-10-26T16:02:33;17.30;1.00
5286;DHT22;2665;53.112;7.358;2022-10-26T16:04:59;17.30;1.00
5286;DHT22;2665;53.112;7.358;2022-10-26T16:07:25;17.20;1.00
5286;DHT22;2665;53.112;7.358;2022-10-26T16:09:52;17.10;1.00
5286;DHT22;2665;53.112;7.358;2022-10-26T16:12:18;17.10;1.00
5286;DHT22;2665;53.112;7.358;2022-10-26T16:14:44;17.00;1.00
5286;DHT22;2665;53.112;7.358;2022-10-26T16:17:09;17.00;1.00
5286;DHT22;2665;53.112;7.358;2022-10-26T16:19:35;16.90;1.00
5286;DHT22;2665;53.112;7.358;2022-10-26T16:22:01;16.80;35.60
5286;DHT22;2665;53.112;7.358;2022-10-26T16:24:28;16.80;57.10
5286;DHT22;2665;53.112;7.358;2022-10-26T16:26:54;16.70;99.90
5286;DHT22;2665;53.112;7.358;2022-10-26T16:29:20;16.70;99.90
5286;DHT22;2665;53.112;7.358;2022-10-26T16:31:46;16.70;99.90
5286;DHT22;2665;53.112;7.358;2022-10-26T16:34:12;16.70;99.90
5286;DHT22;2665;53.112;7.358;2022-10-26T16:36:38;16.70;99.90
5286;DHT22;2665;53.112;7.358;2022-10-26T16:39:04;16.70;99.90
5286;DHT22;2665;53.112;7.358;2022-10-26T16:41:30;16.70;99.90
5286;DHT22;2665;53.112;7.358;2022-10-26T16:43:59;16.70;99.90
5286;DHT22;2665;53.112;7.358;2022-10-26T16:46:24;16.60;99.90
5286;DHT22;2665;53.112;7.358;2022-10-26T16:48:51;16.70;99.90
5286;DHT22;2665;53.112;7.358;2022-10-26T16:51:22;16.70;1.00
5286;DHT22;2665;53.112;7.358;2022-10-26T16:53:50;16.60;99.90
5286;DHT22;2665;53.112;7.358;2022-10-26T16:56:19;16.60;99.90
5286;DHT22;2665;53.112;7.358;2022-10-26T16:58:45;16.50;1.00
5286;DHT22;2665;53.112;7.358;2022-10-26T17:01:11;16.50;1.00
5286;DHT22;2665;53.112;7.358;2022-10-26T17:03:38;16.50;1.00
5286;DHT22;2665;53.112;7.358;2022-10-26T17:06:06;16.50;1.00
5286;DHT22;2665;53.112;7.358;2022-10-26T17:08:33;16.40;1.00
5286;DHT22;2665;53.112;7.358;2022-10-26T17:11:07;16.40;1.00
5286;DHT22;2665;53.112;7.358;2022-10-26T17:13:34;16.30;1.00
5286;DHT22;2665;53.112;7.358;2022-10-26T17:16:01;16.30;64.80
5286;DHT22;2665;53.112;7.358;2022-10-26T17:18:27;16.30;1.00
5286;DHT22;2665;53.112;7.358;2022-10-26T17:20:52;16.20;99.90
5286;DHT22;2665;53.112;7.358;2022-10-26T17:23:18;16.20;19.30
5286;DHT22;2665;53.112;7.358;2022-10-26T17:25:43;16.20;18.70
5286;DHT22;2665;53.112;7.358;2022-10-26T17:28:09;16.10;97.90
5286;DHT22;2665;53.112;7.358;2022-10-26T17:30:35;16.10;99.90
5286;DHT22;2665;53.112;7.358;2022-10-26T17:33:01;16.10;99.90
5286;DHT22;2665;53.112;7.358;2022-10-26T17:35:27;16.10;99.90
5286;DHT22;2665;53.112;7.358;2022-10-26T17:37:52;16.10;99.90
5286;DHT22;2665;53.112;7.358;2022-10-26T17:40:18;16.10;99.90
5286;DHT22;2665;53.112;7.358;2022-10-26T17:42:44;16.10;99.90
5286;DHT22;2665;53.112;7.358;2022-10-26T17:45:09;16.10;99.90
5286;DHT22;2665;53.112;7.358;2022-10-26T17:47:35;16.10;99.90
5286;DHT22;2665;53.112;7.358;2022-10-26T17:50:01;16.10;99.90
5286;DHT22;2665;53.112;7.358;2022-10-26T17:52:28;16.10;99.90
5286;DHT22;2665;53.112;7.358;2022-10-26T17:54:54;16.00;99.90
5286;DHT22;2665;53.112;7.358;2022-10-26T17:57:19;16.00;99.90
5286;DHT22;2665;53.112;7.358;2022-10-26T17:59:46;16.00;99.90
5286;DHT22;2665;53.112;7.358;2022-10-26T18:02:12;16.00;99.90
5286;DHT22;2665;53.112;7.358;2022-10-26T18:04:37;15.90;1.00
5286;DHT22;2665;53.112;7.358;2022-10-26T18:07:03;15.90;1.00
5286;DHT22;2665;53.112;7.358;2022-10-26T18:09:29;15.90;1.00
5286;DHT22;2665;53.112;7.358;2022-10-26T18:11:54;15.90;1.00
5286;DHT22;2665;53.112;7.358;2022-10-26T18:14:20;15.90;1.00
5286;DHT22;2665;53.112;7.358;2022-10-26T18:16:46;15.90;1.00
5286;DHT22;2665;53.112;7.358;2022-10-26T18:19:11;15.80;1.00
5286;DHT22;2665;53.112;7.358;2022-10-26T18:21:37;15.80;1.00
5286;DHT22;2665;53.112;7.358;2022-10-26T18:24:04;15.80;1.00
5286;DHT22;2665;53.112;7.358;2022-10-26T18:26:30;15.80;1.00
5286;DHT22;2665;53.112;7.358;2022-10-26T18:28:57;15.80;1.00
5286;DHT22;2665;53.112;7.358;2022-10-26T18:31:24;15.80;99.90
5286;DHT22;2665;53.112;7.358;2022-10-26T18:33:54;15.80;99.90
5286;DHT22;2665;53.112;7.358;2022-10-26T18:36:20;15.80;99.90
5286;DHT22;2665;53.112;7.358;2022-10-26T18:38:46;15.80;1.00
5286;DHT22;2665;53.112;7.358;2022-10-26T18:41:13;15.90;1.00
5286;DHT22;2665;53.112;7.358;2022-10-26T18:43:43;15.90;1.00
5286;DHT22;2665;53.112;7.358;2022-10-26T18:48:37;15.90;1.00
5286;DHT22;2665;53.112;7.358;2022-10-26T18:51:08;15.90;15.00
5286;DHT22;2665;53.112;7.358;2022-10-26T18:53:35;15.90;1.00
5286;DHT22;2665;53.112;7.358;2022-10-26T18:56:02;15.90;1.00
5286;DHT22;2665;53.112;7.358;2022-10-26T18:58:33;15.90;1.00
5286;DHT22;2665;53.112;7.358;2022-10-26T19:03:31;15.80;1.00
5286;DHT22;2665;53.112;7.358;2022-10-26T19:05:56;15.80;99.90
5286;DHT22;2665;53.112;7.358;2022-10-26T19:08:22;15.70;99.90
5286;DHT22;2665;53.112;7.358;2022-10-26T19:10:48;15.70;99.90
5286;DHT22;2665;53.112;7.358;2022-10-26T19:13:14;15.70;99.90
5286;DHT22;2665;53.112;7.358;2022-10-26T19:15:39;15.70;99.90
5286;DHT22;2665;53.112;7.358;2022-10-26T19:18:05;15.70;99.90
5286;DHT22;2665;53.112;7.358;2022-10-26T19:20:30;15.60;99.90
5286;DHT22;2665;53.112;7.358;2022-10-26T19:22:56;15.60;99.90
5286;DHT22;2665;53.112;7.358;2022-10-26T19:25:22;15.60;99.90
5286;DHT22;2665;53.112;7.358;2022-10-26T19:27:47;15.50;99.90